DURO2: Washita River Durwood, OK

Data processed at Fri Jul 13 2018 23:35


All information presented herein is the property of the government of the United States of America and may be revised or deleted at any time without prior notice.
Dissemination of this information without the expressed written consent of the Public Affairs Office, Tulsa District U.S. Army Corps of Engineers is strictly prohibited.
These data are gathered electronically and, as presented, have not undergone any form of quality control. These data are not guaranteed to be valid or correct.
Go to home page.
Go to station list.

Upstream stations:

Downstream station:
Previous Day
Next Day
Current Day
    
SHEF ID:       DURO2     Washita River near Dickson, OK
STATION TYPE:  

               PRECIP PRECIP(A)     STAGE  RIV-FLOW  BAT-LOAD
                   in        in        ft       cfs      volt
              Ccp-Rev   Ccp-Rev   Ccp-Rev   Ccp-Rev   Ccp-Rev
(US/Central)
07/11 00:00      0.00      ----      6.36       267     12.41
07/11 01:00      0.00      ----      6.35       261     12.41
07/11 02:00      0.00      ----      6.35       261     12.41
07/11 03:00      0.00      ----      6.35       261     12.41
07/11 04:00      0.00      ----      6.36       267     12.41
07/11 05:00      0.00      ----      6.36       267     12.41
07/11 06:00      0.00      ----      6.36       267     12.41
07/11 07:00      0.00      ----      6.37       272     12.41
07/11 08:00      0.00      ----      6.37       272     12.81
07/11 09:00      0.00      ----      6.39       283     12.89
07/11 10:00      0.00      ----      6.40       289     12.73
07/11 11:00      0.00      ----      6.40       289     12.65
07/11 12:00      0.00      ----      6.39       283     12.65
07/11 13:00      0.00      ----      6.38       278     12.65
07/11 14:00      0.00      ----      6.38       278     12.65
07/11 15:00      0.00      ----      6.38       278     12.73
07/11 16:00      0.00      ----      6.38       278     12.65
07/11 17:00      0.00      ----      6.37       272     12.65
07/11 18:00      0.00      ----      6.34       256     12.57
07/11 19:00      0.00      ----      6.37       272     12.65
07/11 20:00      0.00      ----      6.30       234     12.57
07/11 21:00      0.00      ----      6.37       272     12.57
07/11 22:00      0.00      ----      6.37       272     12.49
07/11 23:00      0.00      ----      6.37       272      ----